Time;durP1;ratioP1;P1;durP2;ratioP2;P2;SDS_P1;SDS_P2;PMS_P1;PMS_P2;Temp;Humidity;BMP_temperature;BMP_pressure;BME280_temperature;BME280_humidity;BME280_pressure;Samples;Min_cycle;Max_cycle;Signal;HPM_P1;HPM_P2
2021/12/20 00:02:16;;;;;;;10.15;7.35;;;4.70;99.80;;;;;;5116270;27;20019;-66
2021/12/20 00:04:42;;;;;;;9.00;7.25;;;4.70;99.90;;;;;;5133705;27;20019;-67
2021/12/20 00:07:08;;;;;;;7.50;6.50;;;4.60;99.90;;;;;;5134694;27;20031;-66
2021/12/20 00:09:34;;;;;;;9.35;7.28;;;4.60;99.90;;;;;;5133285;27;20363;-66
2021/12/20 00:11:59;;;;;;;9.40;6.88;;;4.60;99.90;;;;;;5134188;27;20031;-66
2021/12/20 00:14:25;;;;;;;10.10;7.28;;;4.60;99.90;;;;;;5134466;27;20076;-66
2021/12/20 00:16:50;;;;;;;11.98;8.20;;;4.60;99.90;;;;;;5133557;27;20419;-66
2021/12/20 00:19:16;;;;;;;9.85;6.60;;;4.60;99.90;;;;;;5134560;27;20098;-66
2021/12/20 00:21:42;;;;;;;10.27;8.35;;;4.60;99.90;;;;;;5133711;27;20015;-66
2021/12/20 00:24:07;;;;;;;9.18;7.30;;;4.60;99.90;;;;;;5134297;27;20019;-67
2021/12/20 00:26:33;;;;;;;8.50;7.20;;;4.50;99.90;;;;;;5133859;27;20027;-66
2021/12/20 00:28:59;;;;;;;9.27;7.30;;;4.50;99.90;;;;;;5133578;27;20025;-66
2021/12/20 00:31:24;;;;;;;10.77;7.53;;;4.50;99.90;;;;;;5115774;27;20016;-69
2021/12/20 00:33:50;;;;;;;8.43;6.40;;;4.60;99.90;;;;;;5098136;27;20082;-66
2021/12/20 00:36:21;;;;;;;8.32;7.20;;;4.60;99.90;;;;;;5133751;27;20023;-66
2021/12/20 00:41:31;;;;;;;8.18;6.93;;;4.60;99.90;;;;;;5134027;27;19941;-67
2021/12/20 00:43:57;;;;;;;8.50;6.10;;;4.60;99.90;;;;;;5133270;27;20412;-67
2021/12/20 00:46:23;;;;;;;8.05;6.50;;;4.70;99.90;;;;;;5133280;27;20479;-67
2021/12/20 00:48:48;;;;;;;7.60;6.03;;;4.70;99.90;;;;;;5133255;27;20109;-65
2021/12/20 00:51:14;;;;;;;8.85;6.60;;;4.70;99.90;;;;;;5133728;27;20030;-67
2021/12/20 00:53:40;;;;;;;7.95;5.85;;;4.70;99.90;;;;;;5133048;27;20015;-65
2021/12/20 00:56:05;;;;;;;7.28;5.85;;;4.70;99.90;;;;;;5115200;27;20163;-65
2021/12/20 01:01:15;;;;;;;9.02;6.13;;;4.70;99.90;;;;;;5133280;27;20075;-67
2021/12/20 01:03:41;;;;;;;7.38;5.57;;;4.80;99.90;;;;;;5132695;27;20471;-67
2021/12/20 01:06:07;;;;;;;7.22;6.05;;;4.70;99.90;;;;;;5133662;27;20027;-66
2021/12/20 01:08:36;;;;;;;6.25;5.07;;;4.80;99.90;;;;;;5133464;27;20019;-66
2021/12/20 01:11:03;;;;;;;7.47;5.05;;;4.80;99.90;;;;;;5132781;27;20019;-65
2021/12/20 01:13:30;;;;;;;11.27;5.25;;;4.80;99.90;;;;;;5133365;27;20027;-66
2021/12/20 01:16:00;;;;;;;7.18;5.15;;;4.80;99.90;;;;;;5132757;27;20109;-66
2021/12/20 01:18:25;;;;;;;6.97;5.10;;;4.80;99.90;;;;;;5133228;27;20019;-66
2021/12/20 01:20:51;;;;;;;6.75;5.07;;;4.80;99.90;;;;;;5123081;27;20026;-66
2021/12/20 01:23:18;;;;;;;7.10;5.90;;;4.80;99.90;;;;;;5112329;28;20072;-65
2021/12/20 01:25:44;;;;;;;6.75;5.47;;;4.80;99.90;;;;;;5112069;28;20424;-65
2021/12/20 01:28:10;;;;;;;7.35;5.50;;;4.80;99.90;;;;;;5123157;27;20022;-65
2021/12/20 01:30:38;;;;;;;6.97;5.10;;;4.70;99.90;;;;;;5133229;27;20102;-66
2021/12/20 01:33:07;;;;;;;7.95;5.40;;;4.70;99.90;;;;;;5132495;27;20030;-66
2021/12/20 01:35:33;;;;;;;5.78;4.45;;;4.60;99.90;;;;;;5132894;27;20050;-66
2021/12/20 01:37:59;;;;;;;7.90;6.03;;;4.50;99.90;;;;;;5132401;27;20490;-65
2021/12/20 01:40:25;;;;;;;7.88;6.35;;;4.50;99.90;;;;;;5132673;27;20367;-67
2021/12/20 01:42:56;;;;;;;8.07;5.97;;;4.40;99.90;;;;;;5132409;28;20088;-67
2021/12/20 01:45:23;;;;;;;;;;;4.30;99.90;;;;;;5132854;28;20046;-67
2021/12/20 01:47:59;;;;;;;4.88;4.00;;;4.30;99.90;;;;;;5132227;28;19903;-66
2021/12/20 01:50:40;;;;;;;3.80;3.15;;;4.10;99.90;;;;;;5132812;28;20062;-68
2021/12/20 01:53:07;;;;;;;2.60;2.25;;;4.00;99.90;;;;;;5132197;28;20023;-67
2021/12/20 01:55:33;;;;;;;2.70;2.40;;;4.00;99.90;;;;;;5132795;28;20047;-67
2021/12/20 01:57:59;;;;;;;3.30;2.13;;;3.90;99.90;;;;;;5132179;28;20057;-65
2021/12/20 02:00:28;;;;;;;2.17;1.77;;;3.90;99.90;;;;;;5132759;28;20026;-66
2021/12/20 02:03:01;;;;;;;1.42;1.33;;;3.80;99.90;;;;;;5132101;28;20034;-66
2021/12/20 02:08:16;;;;;;;2.30;1.48;;;3.80;99.90;;;;;;5132209;28;20326;-66
2021/12/20 02:10:46;;;;;;;3.03;1.40;;;3.70;99.90;;;;;;5132721;28;20277;-67
2021/12/20 02:13:13;;;;;;;1.50;1.05;;;3.70;99.90;;;;;;5132618;28;20019;-66
2021/12/20 02:15:39;;;;;;;2.90;1.20;;;3.70;99.90;;;;;;5132359;28;20038;-67
2021/12/20 02:18:05;;;;;;;1.90;1.20;;;3.70;99.90;;;;;;5132040;28;20026;-66
2021/12/20 02:20:33;;;;;;;2.45;0.80;;;3.70;99.90;;;;;;5132535;28;20444;-66
2021/12/20 02:23:00;;;;;;;1.63;0.93;;;3.70;99.90;;;;;;5131856;28;20031;-67
2021/12/20 02:25:27;;;;;;;1.08;0.80;;;3.70;99.90;;;;;;5132526;28;20027;-66
2021/12/20 02:27:53;;;;;;;1.10;0.90;;;3.70;99.90;;;;;;5131857;28;20090;-66
2021/12/20 02:38:27;;;;;;;1.73;1.02;;;3.80;99.90;;;;;;5136326;27;20103;-66
2021/12/20 02:41:06;;;;;;;2.30;1.10;;;3.70;99.90;;;;;;5135670;27;20050;-66
2021/12/20 02:43:36;;;;;;;1.45;1.02;;;3.70;99.90;;;;;;5136146;27;20072;-66
2021/12/20 02:46:05;;;;;;;1.30;1.17;;;3.70;99.90;;;;;;5135468;27;20054;-66
2021/12/20 02:48:31;;;;;;;1.63;1.35;;;3.70;99.90;;;;;;5136056;27;20023;-66
2021/12/20 02:50:57;;;;;;;1.92;1.70;;;3.70;99.90;;;;;;5117174;27;20121;-66
2021/12/20 02:53:23;;;;;;;2.55;1.52;;;3.70;99.90;;;;;;5136064;27;20346;-66
2021/12/20 02:55:49;;;;;;;1.85;1.73;;;3.80;99.90;;;;;;5135408;27;20035;-66
2021/12/20 02:58:14;;;;;;;2.17;1.90;;;3.80;99.90;;;;;;5135689;27;20507;-66
2021/12/20 03:00:40;;;;;;;2.05;1.85;;;3.80;99.90;;;;;;5135839;27;20064;-65
2021/12/20 03:03:08;;;;;;;1.63;1.52;;;3.80;99.90;;;;;;5135189;27;20015;-65
2021/12/20 03:05:34;;;;;;;2.08;1.80;;;3.70;99.90;;;;;;5135746;27;20019;-66
2021/12/20 03:08:01;;;;;;;2.17;1.98;;;3.70;99.90;;;;;;5135155;27;20015;-65
2021/12/20 03:10:28;;;;;;;2.95;2.17;;;3.70;99.90;;;;;;5135700;27;20400;-65
2021/12/20 03:12:55;;;;;;;2.22;1.95;;;3.60;99.90;;;;;;5134983;27;20027;-66
2021/12/20 03:15:23;;;;;;;2.67;1.98;;;3.60;99.90;;;;;;5135443;27;20459;-66
2021/12/20 03:17:48;;;;;;;3.28;2.20;;;3.60;99.90;;;;;;5134974;27;20019;-65
2021/12/20 03:20:15;;;;;;;3.60;2.28;;;3.50;99.90;;;;;;5135406;27;20359;-66
2021/12/20 03:22:42;;;;;;;4.80;2.42;;;3.60;99.90;;;;;;5101410;28;20023;-66
2021/12/20 03:25:08;;;;;;;3.67;2.22;;;3.60;99.90;;;;;;5114166;28;20035;-66
2021/12/20 03:27:34;;;;;;;4.45;2.60;;;3.60;99.90;;;;;;5114559;28;20393;-66
2021/12/20 03:30:00;;;;;;;2.95;2.55;;;3.60;99.90;;;;;;5113826;28;20496;-66
2021/12/20 03:32:26;;;;;;;3.08;2.30;;;3.60;99.90;;;;;;5114612;28;20092;-66
2021/12/20 03:34:52;;;;;;;2.80;2.50;;;3.70;99.90;;;;;;5114000;28;20051;-66
2021/12/20 03:37:17;;;;;;;3.88;2.17;;;3.70;99.90;;;;;;5127409;27;20023;-65
2021/12/20 03:39:43;;;;;;;2.53;1.90;;;3.70;99.90;;;;;;5135081;27;20019;-65
2021/12/20 03:42:09;;;;;;;4.05;2.17;;;3.80;99.90;;;;;;5134218;27;20378;-65
2021/12/20 03:44:38;;;;;;;5.20;1.75;;;3.80;99.90;;;;;;5134677;27;20355;-66
2021/12/20 03:47:04;;;;;;;2.78;1.75;;;3.90;99.90;;;;;;5134334;27;20133;-66
2021/12/20 03:49:30;;;;;;;4.97;1.92;;;3.90;99.90;;;;;;5134643;27;20042;-66
2021/12/20 03:51:55;;;;;;;1.95;1.75;;;4.00;99.90;;;;;;5134335;27;20023;-66
2021/12/20 03:54:21;;;;;;;3.10;1.63;;;4.00;99.90;;;;;;5134717;27;20040;-66
2021/12/20 03:56:47;;;;;;;3.13;1.80;;;4.00;99.90;;;;;;5134758;27;20354;-66
2021/12/20 03:59:13;;;;;;;3.25;1.83;;;4.00;99.90;;;;;;5133983;27;20023;-66
2021/12/20 04:01:39;;;;;;;3.03;1.80;;;4.10;99.90;;;;;;5134659;27;20050;-66
2021/12/20 04:04:05;;;;;;;4.03;1.70;;;4.10;99.90;;;;;;5133951;27;20023;-66
2021/12/20 04:06:33;;;;;;;1.92;1.38;;;4.20;99.90;;;;;;5134198;27;20442;-66
2021/12/20 04:08:59;;;;;;;2.85;1.55;;;4.20;99.90;;;;;;5133905;27;20027;-66
2021/12/20 04:11:25;;;;;;;2.55;1.75;;;4.20;99.90;;;;;;5134498;27;20102;-67
2021/12/20 04:13:51;;;;;;;2.08;1.60;;;4.20;99.90;;;;;;5134419;27;20027;-68
2021/12/20 04:16:17;;;;;;;2.67;1.50;;;4.20;99.90;;;;;;5134293;27;20023;-65
2021/12/20 04:18:43;;;;;;;3.38;1.50;;;4.20;99.90;;;;;;5134749;27;20042;-67
2021/12/20 04:21:10;;;;;;;4.00;2.22;;;4.20;99.90;;;;;;5133336;27;20023;-65
2021/12/20 04:23:36;;;;;;;4.10;1.42;;;4.20;99.90;;;;;;5134182;27;20019;-66
2021/12/20 04:26:02;;;;;;;4.38;1.77;;;4.30;99.90;;;;;;5133401;27;20024;-65
2021/12/20 04:28:28;;;;;;;3.17;1.60;;;4.30;99.90;;;;;;5133783;27;20023;-65
2021/12/20 04:30:54;;;;;;;3.70;1.63;;;4.30;99.90;;;;;;5133506;27;20504;-66
2021/12/20 04:33:20;;;;;;;3.13;1.52;;;4.30;99.90;;;;;;5133845;27;20102;-66
2021/12/20 04:35:46;;;;;;;4.93;1.80;;;4.30;99.90;;;;;;5133903;27;20032;-66
2021/12/20 04:38:12;;;;;;;3.67;2.00;;;4.30;99.90;;;;;;5133255;27;20096;-66
2021/12/20 04:40:38;;;;;;;2.58;1.95;;;4.30;99.90;;;;;;5133735;27;20443;-66
2021/12/20 04:43:05;;;;;;;3.92;2.33;;;4.30;99.90;;;;;;5133187;27;20015;-66
2021/12/20 04:45:31;;;;;;;2.85;2.10;;;4.30;99.90;;;;;;5133540;27;20054;-66
2021/12/20 04:47:57;;;;;;;3.45;1.80;;;4.30;99.90;;;;;;5133135;27;20019;-67
2021/12/20 04:50:25;;;;;;;4.13;2.03;;;4.30;99.90;;;;;;5133599;27;20027;-67
2021/12/20 04:52:51;;;;;;;4.93;2.30;;;4.30;99.90;;;;;;5133508;27;20160;-67
2021/12/20 04:55:17;;;;;;;3.25;1.92;;;4.30;99.90;;;;;;5132436;27;20121;-67
2021/12/20 04:57:44;;;;;;;2.15;1.55;;;4.30;99.90;;;;;;5133532;27;20019;-67
2021/12/20 05:00:14;;;;;;;4.35;1.90;;;4.20;99.90;;;;;;5133044;27;20023;-68
2021/12/20 05:02:39;;;;;;;5.30;1.85;;;4.20;99.90;;;;;;5133438;27;20023;-67
2021/12/20 05:05:06;;;;;;;6.22;2.28;;;4.20;99.90;;;;;;5132655;27;20110;-66
2021/12/20 05:07:32;;;;;;;4.78;2.00;;;4.20;99.90;;;;;;5133092;27;20019;-67
2021/12/20 05:10:01;;;;;;;3.95;1.98;;;4.10;99.90;;;;;;5132745;27;20079;-67
2021/12/20 05:12:27;;;;;;;2.55;1.90;;;4.10;99.90;;;;;;5133221;27;20015;-65
2021/12/20 05:14:52;;;;;;;3.88;2.20;;;4.10;99.90;;;;;;5125845;27;20513;-67
2021/12/20 05:17:18;;;;;;;5.10;2.20;;;4.10;99.90;;;;;;5131301;27;20035;-66
2021/12/20 05:19:44;;;;;;;2.60;1.90;;;4.10;99.90;;;;;;5131880;27;20023;-66
2021/12/20 05:22:10;;;;;;;4.47;1.83;;;4.10;99.90;;;;;;5131233;27;20347;-66
2021/12/20 05:24:38;;;;;;;3.92;1.85;;;4.10;99.90;;;;;;5132918;27;20471;-66
2021/12/20 05:27:04;;;;;;;3.67;1.98;;;4.10;99.90;;;;;;5132622;27;20030;-65
2021/12/20 05:29:30;;;;;;;3.15;1.98;;;4.00;99.90;;;;;;5129195;27;20015;-65
2021/12/20 05:31:57;;;;;;;6.15;1.80;;;4.10;99.90;;;;;;5116994;27;20423;-65
2021/12/20 05:34:23;;;;;;;3.45;1.77;;;4.00;99.90;;;;;;5112305;28;20023;-66
2021/12/20 05:36:48;;;;;;;4.47;2.00;;;4.00;99.90;;;;;;5112437;28;20511;-66
2021/12/20 05:39:14;;;;;;;7.75;2.17;;;4.00;99.90;;;;;;5119384;27;20065;-65
2021/12/20 05:41:40;;;;;;;6.50;1.90;;;4.00;99.90;;;;;;5132824;27;20125;-66
2021/12/20 05:44:05;;;;;;;5.38;1.70;;;4.00;99.90;;;;;;5132194;28;20055;-65
2021/12/20 05:46:32;;;;;;;5.75;1.98;;;4.00;99.90;;;;;;5132314;27;20047;-66
2021/12/20 05:48:58;;;;;;;7.50;1.75;;;4.00;99.90;;;;;;5116927;28;20117;-65
2021/12/20 05:51:24;;;;;;;5.40;2.20;;;4.00;99.90;;;;;;5111246;28;20111;-67
2021/12/20 05:53:50;;;;;;;7.90;2.15;;;4.00;99.90;;;;;;5112328;28;20019;-67
2021/12/20 05:56:16;;;;;;;5.78;2.30;;;4.00;99.90;;;;;;5111844;28;20023;-66
2021/12/20 05:58:41;;;;;;;3.88;1.90;;;4.00;99.90;;;;;;5112528;28;20048;-65
2021/12/20 06:01:07;;;;;;;6.22;1.88;;;4.00;99.90;;;;;;5111536;28;20019;-65
2021/12/20 06:03:33;;;;;;;4.40;1.77;;;4.00;99.90;;;;;;5112091;28;20019;-66
2021/12/20 06:05:59;;;;;;;4.53;1.80;;;4.00;99.90;;;;;;5093705;28;20035;-66
2021/12/20 06:08:43;;;;;;;4.35;1.80;;;4.00;99.90;;;;;;5114878;28;20136;-66
2021/12/20 06:11:09;;;;;;;5.72;1.90;;;4.00;99.90;;;;;;5114064;28;20031;-65
2021/12/20 06:13:34;;;;;;;6.93;1.60;;;3.90;99.90;;;;;;5114616;28;20024;-66
2021/12/20 06:16:00;;;;;;;3.67;1.77;;;3.90;99.90;;;;;;5114286;28;20099;-65
2021/12/20 06:18:26;;;;;;;5.28;2.00;;;4.00;99.90;;;;;;5113991;28;20098;-66
2021/12/20 06:20:51;;;;;;;4.55;1.88;;;3.90;99.90;;;;;;5114469;28;20035;-66
2021/12/20 06:23:17;;;;;;;5.72;1.90;;;3.90;99.90;;;;;;5114543;28;20030;-65
2021/12/20 06:25:43;;;;;;;6.68;2.13;;;3.90;99.90;;;;;;5114874;28;20028;-66
2021/12/20 06:28:08;;;;;;;4.45;1.38;;;3.90;99.90;;;;;;5096738;28;20039;-66
2021/12/20 06:30:34;;;;;;;4.63;1.70;;;3.90;99.90;;;;;;5115720;28;20122;-66
2021/12/20 06:33:00;;;;;;;3.85;1.80;;;3.80;99.90;;;;;;5115608;28;20016;-66
2021/12/20 06:35:26;;;;;;;3.28;1.55;;;3.80;99.90;;;;;;5115183;28;20035;-66
2021/12/20 06:38:00;;;;;;;5.40;1.70;;;3.80;99.60;;;;;;5115719;28;20020;-66
2021/12/20 06:40:27;;;;;;;6.30;1.80;;;3.80;99.50;;;;;;5115128;28;20102;-67
2021/12/20 06:42:53;;;;;;;10.27;1.98;;;3.80;99.60;;;;;;5115545;28;20023;-67
2021/12/20 06:45:19;;;;;;;4.47;1.88;;;3.80;99.70;;;;;;5114474;28;20070;-66
2021/12/20 06:47:45;;;;;;;5.55;1.80;;;3.80;99.50;;;;;;5115642;28;20020;-66
2021/12/20 06:50:11;;;;;;;6.82;2.00;;;3.80;99.70;;;;;;5114943;28;20508;-66
2021/12/20 06:52:37;;;;;;;4.53;1.75;;;3.80;99.40;;;;;;5115704;28;20041;-66
2021/12/20 06:55:03;;;;;;;6.50;1.73;;;3.80;99.40;;;;;;5115452;28;20031;-66
2021/12/20 06:57:29;;;;;;;4.68;1.77;;;3.70;98.90;;;;;;5115380;28;20459;-66
2021/12/20 06:59:56;;;;;;;5.75;2.35;;;3.70;98.70;;;;;;5115665;28;20026;-66
2021/12/20 07:02:22;;;;;;;4.97;1.70;;;3.70;98.70;;;;;;5114645;28;20096;-67
2021/12/20 07:04:48;;;;;;;6.00;1.90;;;3.70;98.30;;;;;;5114845;28;20024;-66
2021/12/20 07:07:14;;;;;;;5.90;1.60;;;3.70;98.30;;;;;;5114673;28;20444;-67
2021/12/20 07:09:39;;;;;;;7.90;2.25;;;3.70;98.30;;;;;;5115199;28;20069;-67
2021/12/20 07:12:05;;;;;;;5.40;2.33;;;3.80;98.50;;;;;;5114886;28;20372;-66
2021/12/20 07:14:31;;;;;;;5.60;1.67;;;3.80;98.70;;;;;;5114982;28;20031;-67
2021/12/20 07:16:57;;;;;;;6.32;2.08;;;3.80;99.20;;;;;;5114877;28;20019;-67
2021/12/20 07:19:23;;;;;;;4.35;2.08;;;3.80;99.60;;;;;;5114013;28;20493;-66
2021/12/20 07:21:49;;;;;;;3.15;1.23;;;3.80;99.70;;;;;;5117268;27;20064;-65
2021/12/20 07:24:15;;;;;;;6.32;2.00;;;3.80;99.40;;;;;;5113955;28;20016;-67
2021/12/20 07:26:41;;;;;;;4.05;1.88;;;3.80;98.70;;;;;;5114696;28;20090;-66
2021/12/20 07:29:07;;;;;;;5.22;1.90;;;3.80;98.00;;;;;;5114050;28;20055;-65
2021/12/20 07:31:33;;;;;;;5.88;1.80;;;3.80;96.90;;;;;;5096285;28;20054;-66
2021/12/20 07:33:59;;;;;;;7.28;1.98;;;3.80;96.50;;;;;;5114431;28;20023;-67
2021/12/20 07:36:25;;;;;;;7.65;2.10;;;3.80;96.00;;;;;;5113615;28;20076;-66
2021/12/20 07:38:51;;;;;;;5.75;1.63;;;3.80;96.00;;;;;;5096107;28;20051;-66
2021/12/20 07:41:21;;;;;;;6.57;1.95;;;3.80;94.70;;;;;;5113735;28;20030;-66
2021/12/20 07:43:48;;;;;;;5.25;1.90;;;3.70;94.10;;;;;;5131388;27;20075;-67
2021/12/20 07:46:14;;;;;;;5.45;2.05;;;3.80;94.20;;;;;;5115391;27;20451;-66
2021/12/20 07:48:40;;;;;;;6.13;2.10;;;3.80;94.40;;;;;;5134739;27;20033;-66
2021/12/20 07:51:06;;;;;;;5.85;1.92;;;3.80;94.70;;;;;;5134929;27;20019;-67
2021/12/20 07:53:32;;;;;;;5.03;2.05;;;3.80;95.00;;;;;;5115659;27;20436;-68
2021/12/20 07:55:57;;;;;;;4.70;1.85;;;3.80;95.10;;;;;;5134555;27;20352;-67
2021/12/20 07:58:23;;;;;;;7.57;2.40;;;3.80;95.00;;;;;;5133900;27;20019;-68
2021/12/20 08:00:50;;;;;;;5.63;2.03;;;3.90;94.20;;;;;;5134342;27;20023;-68
2021/12/20 08:03:16;;;;;;;6.18;1.88;;;3.80;94.20;;;;;;5133997;27;20128;-67
2021/12/20 08:05:42;;;;;;;4.43;1.92;;;3.80;94.00;;;;;;5134474;27;20035;-67
2021/12/20 08:08:08;;;;;;;5.93;2.30;;;3.80;93.90;;;;;;5134522;27;20026;-68
2021/12/20 08:10:34;;;;;;;9.27;2.63;;;3.80;93.70;;;;;;5134534;27;20355;-68
2021/12/20 08:13:00;;;;;;;8.63;2.25;;;3.90;93.70;;;;;;5134451;27;20015;-67
2021/12/20 08:15:28;;;;;;;6.15;2.17;;;3.90;93.90;;;;;;5133702;27;20035;-68
2021/12/20 08:17:55;;;;;;;5.65;2.53;;;3.90;93.50;;;;;;5134423;27;20099;-67
2021/12/20 08:20:23;;;;;;;6.22;2.10;;;3.80;93.10;;;;;;5133590;27;20090;-66
2021/12/20 08:22:49;;;;;;;6.60;2.70;;;3.80;93.40;;;;;;5134300;27;20097;-67
2021/12/20 08:25:16;;;;;;;4.68;2.13;;;3.90;93.00;;;;;;5133550;27;20031;-66
2021/12/20 08:27:42;;;;;;;8.07;1.90;;;3.90;93.20;;;;;;5134194;27;20156;-66
2021/12/20 08:30:08;;;;;;;5.60;1.92;;;3.90;93.00;;;;;;5132979;27;20123;-67
2021/12/20 08:32:36;;;;;;;4.75;2.30;;;3.90;92.90;;;;;;5115026;27;20404;-66
2021/12/20 08:35:02;;;;;;;5.05;1.75;;;4.00;93.10;;;;;;5133857;27;20107;-66
2021/12/20 08:37:28;;;;;;;10.18;2.50;;;4.00;93.00;;;;;;5133270;27;20034;-65
2021/12/20 08:39:54;;;;;;;5.53;2.22;;;4.00;92.70;;;;;;5133526;27;20019;-66
2021/12/20 08:42:20;;;;;;;7.55;2.63;;;4.00;92.40;;;;;;5133160;27;20072;-65
2021/12/20 08:44:47;;;;;;;5.05;2.33;;;4.00;92.50;;;;;;5133520;27;20019;-65
2021/12/20 08:47:12;;;;;;;6.15;2.75;;;4.10;92.50;;;;;;5132857;27;20564;-66
2021/12/20 08:49:38;;;;;;;6.43;1.90;;;4.10;92.40;;;;;;5133726;27;20055;-66
2021/12/20 08:52:05;;;;;;;5.38;2.33;;;4.10;92.10;;;;;;5133748;27;20043;-67
2021/12/20 08:54:31;;;;;;;7.88;2.75;;;4.10;91.70;;;;;;5114855;27;20015;-66
2021/12/20 08:56:57;;;;;;;6.28;2.30;;;4.10;91.50;;;;;;5133774;27;20029;-66
2021/12/20 08:59:23;;;;;;;8.48;2.72;;;4.20;91.70;;;;;;5132941;27;20106;-66
2021/12/20 09:01:50;;;;;;;4.20;2.22;;;4.20;91.70;;;;;;5133537;27;20073;-66
2021/12/20 09:04:16;;;;;;;6.50;2.63;;;4.20;90.90;;;;;;5133160;27;20030;-66
2021/12/20 09:06:42;;;;;;;7.20;2.58;;;4.30;90.50;;;;;;5133237;27;20069;-66
2021/12/20 09:09:12;;;;;;;9.85;2.63;;;4.30;90.40;;;;;;5133364;27;20110;-66
2021/12/20 09:11:38;;;;;;;7.80;2.28;;;4.30;90.40;;;;;;5133015;27;20102;-67
2021/12/20 09:14:04;;;;;;;7.60;2.13;;;4.30;90.70;;;;;;5133425;27;20042;-66
2021/12/20 09:16:30;;;;;;;6.40;2.50;;;4.30;90.60;;;;;;5132751;27;20065;-67
2021/12/20 09:18:55;;;;;;;4.57;2.30;;;4.40;90.70;;;;;;5132856;27;20076;-67
2021/12/20 09:21:22;;;;;;;7.05;2.55;;;4.40;90.40;;;;;;5132493;27;20020;-65
2021/12/20 09:23:48;;;;;;;5.78;2.13;;;4.40;90.40;;;;;;5133301;27;20026;-65
2021/12/20 09:26:14;;;;;;;7.75;2.20;;;4.50;90.40;;;;;;5133041;27;20419;-67
2021/12/20 09:28:40;;;;;;;4.38;2.20;;;4.50;90.00;;;;;;5126100;27;20043;-65
2021/12/20 09:31:07;;;;;;;8.10;2.00;;;4.50;88.20;;;;;;5112400;28;20062;-65
2021/12/20 09:33:33;;;;;;;6.07;2.00;;;4.50;87.30;;;;;;5111714;28;20016;-66
2021/12/20 09:35:59;;;;;;;5.03;1.90;;;4.50;86.90;;;;;;5112588;28;20035;-67
2021/12/20 09:38:28;;;;;;;6.10;2.17;;;4.60;86.70;;;;;;5111811;28;20396;-67
2021/12/20 09:43:47;;;;;;;6.78;2.13;;;4.60;86.40;;;;;;5111692;28;20020;-66
2021/12/20 09:46:14;;;;;;;8.60;2.20;;;4.60;86.60;;;;;;5115096;28;20051;-67
2021/12/20 09:48:46;;;;;;;9.35;2.00;;;4.60;86.30;;;;;;5132290;28;20026;-66
2021/12/20 09:51:12;;;;;;;8.07;2.20;;;4.70;86.20;;;;;;5132941;28;20091;-66
2021/12/20 09:53:38;;;;;;;7.70;2.22;;;4.70;86.80;;;;;;5132142;28;20112;-66
2021/12/20 09:56:06;;;;;;;6.28;2.17;;;4.80;86.20;;;;;;5132885;28;20042;-67
2021/12/20 09:58:36;;;;;;;4.85;1.90;;;4.80;86.30;;;;;;5132063;28;20031;-67
2021/12/20 10:01:04;;;;;;;7.40;2.50;;;4.80;83.00;;;;;;5132988;28;20097;-67
2021/12/20 10:03:30;;;;;;;6.95;1.95;;;4.80;83.50;;;;;;5132230;28;20031;-66
2021/12/20 10:05:57;;;;;;;6.38;2.28;;;4.90;83.20;;;;;;5132479;28;20405;-67
2021/12/20 10:08:32;;;;;;;5.95;2.40;;;4.90;82.60;;;;;;5132065;28;20030;-68
2021/12/20 10:11:19;;;;;;;5.20;2.00;;;5.00;83.10;;;;;;5132677;28;20026;-66
2021/12/20 10:13:45;;;;;;;7.75;2.13;;;5.10;81.50;;;;;;5131914;28;20092;-67
2021/12/20 10:16:20;;;;;;;4.00;1.83;;;5.20;80.00;;;;;;5132596;28;20023;-66
2021/12/20 10:18:47;;;;;;;6.00;1.92;;;5.30;79.30;;;;;;5132325;28;20023;-65
2021/12/20 10:21:13;;;;;;;3.97;1.77;;;5.30;77.30;;;;;;5132468;28;20336;-66
2021/12/20 10:23:49;;;;;;;5.53;1.95;;;5.20;76.20;;;;;;5131578;28;20031;-66
2021/12/20 10:26:18;;;;;;;6.63;1.85;;;5.20;76.30;;;;;;5132444;28;20033;-67
2021/12/20 10:28:44;;;;;;;4.43;1.80;;;5.10;75.90;;;;;;5132570;28;20015;-66
2021/12/20 10:31:16;;;;;;;5.82;1.65;;;5.10;76.00;;;;;;5132242;28;20034;-66
2021/12/20 10:33:54;;;;;;;4.63;1.92;;;5.10;75.90;;;;;;5131469;28;20023;-66
2021/12/20 10:36:20;;;;;;;8.82;1.90;;;5.00;75.80;;;;;;5131853;28;20023;-66
2021/12/20 10:38:56;;;;;;;9.38;2.00;;;5.00;75.80;;;;;;5132145;28;20075;-66
2021/12/20 10:41:35;;;;;;;6.13;1.65;;;5.00;75.90;;;;;;5131758;28;20102;-66
2021/12/20 10:44:17;;;;;;;5.90;1.70;;;5.00;74.70;;;;;;5132397;28;20023;-66
2021/12/20 10:46:49;;;;;;;6.20;1.45;;;4.90;73.40;;;;;;5112738;28;20051;-67
2021/12/20 10:49:15;;;;;;;6.85;1.40;;;4.80;74.10;;;;;;5132217;28;20030;-66
2021/12/20 10:51:44;;;;;;;7.57;2.05;;;4.80;75.00;;;;;;5131659;27;20019;-66
2021/12/20 10:54:14;;;;;;;6.55;1.55;;;4.80;74.50;;;;;;5135314;27;20027;-66
2021/12/20 10:56:55;;;;;;;5.30;1.55;;;4.80;74.90;;;;;;5135116;27;20412;-66
2021/12/20 10:59:23;;;;;;;8.32;1.88;;;4.70;74.90;;;;;;5135884;27;20023;-65
2021/12/20 11:04:20;;;;;;;5.47;2.08;;;4.70;75.40;;;;;;5135763;27;20075;-67
2021/12/20 11:09:35;;;;;;;3.90;1.60;;;4.70;75.80;;;;;;5135247;27;20474;-66
2021/12/20 11:12:04;;;;;;;7.70;2.13;;;4.70;75.70;;;;;;5135378;27;20034;-66
2021/12/20 11:14:31;;;;;;;5.07;1.80;;;4.70;76.30;;;;;;5134954;27;20050;-66
2021/12/20 11:16:58;;;;;;;2.78;1.58;;;4.70;76.30;;;;;;5135563;27;20023;-66
2021/12/20 11:19:28;;;;;;;3.72;1.45;;;4.60;75.00;;;;;;5134936;27;20443;-67
2021/12/20 11:22:00;;;;;;;4.95;1.50;;;4.60;74.50;;;;;;5135577;27;20448;-66
2021/12/20 11:24:35;;;;;;;3.30;1.42;;;4.50;74.80;;;;;;5135262;27;20110;-66
2021/12/20 11:27:03;;;;;;;3.33;1.52;;;4.50;74.40;;;;;;5135418;27;20034;-66
2021/12/20 11:29:30;;;;;;;7.47;1.88;;;4.40;75.20;;;;;;5134505;27;20463;-66
2021/12/20 11:31:57;;;;;;;5.00;2.03;;;4.40;75.50;;;;;;5126127;27;20105;-65
2021/12/20 11:34:24;;;;;;;4.22;1.70;;;4.30;75.90;;;;;;5114571;28;20447;-66
2021/12/20 11:36:51;;;;;;;3.85;1.60;;;4.30;76.10;;;;;;5114514;28;20032;-66
2021/12/20 11:39:17;;;;;;;5.55;1.50;;;4.30;76.30;;;;;;5114656;28;20019;-67
2021/12/20 11:41:43;;;;;;;5.97;2.20;;;4.30;76.80;;;;;;5114024;28;20015;-65
2021/12/20 11:44:17;;;;;;;5.30;1.70;;;4.30;77.00;;;;;;5115828;27;20440;-66
2021/12/20 11:46:49;;;;;;;7.97;2.28;;;4.40;78.00;;;;;;5132476;27;20039;-66
2021/12/20 11:49:23;;;;;;;6.15;1.73;;;4.40;77.60;;;;;;5134722;27;20026;-67
2021/12/20 11:52:08;;;;;;;4.88;1.80;;;4.40;77.80;;;;;;5134931;27;20413;-66
2021/12/20 11:54:46;;;;;;;6.80;1.50;;;4.40;77.00;;;;;;5134209;27;20015;-66
2021/12/20 11:57:30;;;;;;;5.95;1.70;;;4.40;75.70;;;;;;5134792;27;20023;-67
2021/12/20 12:00:06;;;;;;;4.15;1.80;;;4.40;74.40;;;;;;5134805;27;20026;-66
2021/12/20 12:02:38;;;;;;;5.75;1.58;;;4.30;73.50;;;;;;5134032;27;20035;-67
2021/12/20 12:05:06;;;;;;;8.00;1.88;;;4.30;74.30;;;;;;5134470;27;20022;-67
2021/12/20 12:07:35;;;;;;;2.92;1.42;;;4.30;74.40;;;;;;5134112;27;20026;-68
2021/12/20 12:10:04;;;;;;;4.25;1.67;;;4.30;74.80;;;;;;5134710;27;20109;-67
2021/12/20 12:12:31;;;;;;;6.25;1.83;;;4.30;75.40;;;;;;5134009;27;20057;-66
2021/12/20 12:15:03;;;;;;;5.82;1.85;;;4.20;75.20;;;;;;5134591;27;20439;-66
2021/12/20 12:17:47;;;;;;;6.13;1.70;;;4.20;75.40;;;;;;5133959;27;20343;-66
2021/12/20 12:20:13;;;;;;;4.70;1.77;;;4.30;75.30;;;;;;5134517;27;20019;-67
2021/12/20 12:22:43;;;;;;;4.18;1.98;;;4.30;75.50;;;;;;5133821;27;20023;-67
2021/12/20 12:25:36;;;;;;;3.67;1.80;;;4.30;75.30;;;;;;5134323;27;20555;-67
2021/12/20 12:28:01;;;;;;;6.00;2.08;;;4.30;75.70;;;;;;5134216;27;20027;-66
2021/12/20 12:30:30;;;;;;;4.40;1.50;;;4.30;75.90;;;;;;5133570;27;20026;-66
2021/12/20 12:32:56;;;;;;;2.80;1.48;;;4.30;74.50;;;;;;5134195;27;20060;-66
2021/12/20 12:35:37;;;;;;;5.45;1.75;;;4.30;74.80;;;;;;5134011;27;20027;-66
2021/12/20 12:38:26;;;;;;;8.35;1.50;;;4.30;74.30;;;;;;5134045;27;20018;-66
2021/12/20 12:41:12;;;;;;;3.33;1.33;;;4.30;73.80;;;;;;5133456;27;20030;-66
2021/12/20 12:43:58;;;;;;;6.82;1.27;;;4.30;73.40;;;;;;5133408;27;20045;-66
2021/12/20 12:46:36;;;;;;;4.50;1.77;;;4.20;73.10;;;;;;5133603;27;20520;-66
2021/12/20 12:49:20;;;;;;;2.10;1.20;;;4.20;73.30;;;;;;5133728;27;20023;-67
2021/12/20 12:52:15;;;;;;;3.53;1.42;;;4.10;73.10;;;;;;5133240;27;20072;-66
2021/12/20 12:54:44;;;;;;;6.90;1.25;;;4.10;73.00;;;;;;5114837;27;20456;-66
2021/12/20 12:57:10;;;;;;;3.63;1.92;;;4.20;73.60;;;;;;5133490;27;20019;-66
2021/12/20 12:59:56;;;;;;;3.88;1.58;;;4.10;74.20;;;;;;5132995;27;20026;-66
2021/12/20 13:02:37;;;;;;;2.50;1.50;;;4.10;74.40;;;;;;5133519;27;20022;-67
2021/12/20 13:05:05;;;;;;;4.07;1.70;;;4.10;74.10;;;;;;5133669;27;20019;-66
2021/12/20 13:07:33;;;;;;;4.82;1.83;;;4.20;74.00;;;;;;5132853;27;20352;-65
2021/12/20 13:10:04;;;;;;;2.55;1.30;;;4.10;73.80;;;;;;5133389;27;20100;-66
2021/12/20 13:12:47;;;;;;;4.38;1.88;;;4.20;73.50;;;;;;5133315;27;20023;-65
2021/12/20 13:17:57;;;;;;;6.57;1.77;;;4.10;74.00;;;;;;5132530;27;20133;-65
2021/12/20 13:23:04;;;;;;;;;;;4.10;74.20;;;;;;5132826;27;20045;-66
2021/12/20 13:25:33;;;;;;;3.13;1.30;;;4.20;74.60;;;;;;5119246;27;19915;-66
2021/12/20 13:27:58;;;;;;;3.63;1.60;;;4.20;74.40;;;;;;5112512;28;20091;-65
2021/12/20 13:30:32;;;;;;;4.70;1.95;;;4.20;74.70;;;;;;5094365;28;20173;-66
2021/12/20 13:32:58;;;;;;;4.20;1.70;;;4.20;75.20;;;;;;5112470;28;20020;-66